Sunderland, Vermont
Current Conditions -  °F | °C
As of 7:54 PM on Thursday 18 Dec 2014 (Local Time) from KDDH Reporting Station
Overcast Overcast  
Wind Chill: 22°   Ceiling: 2600
Heat Index: 31°   Visibility: 10mi
Dew Point: 25°   Wind: 12mph
Humidity: 79%   Direction: 270°W
Pressure: 29.9"   Gusts: 18mph
Location:  43.0661°N, 73.1407°W
Report Text: KDDH 190054Z AUTO 27010G16KT 10SM SCT017 OVC026 M01/M04 A2990 RMK AO2 SLP134 T10061039
Loading
Personal Weather Stations






























Interactive Weather Map New forecast layout! Learn more

10-Day Weather Forecast

Advertisements
Track Severe Weather on mobile